Modello, Florida
Current Conditions -  °F | °C
As of 2:03 PM on Friday 24 Oct 2014 (Local Time) from KHST Reporting Station
Heavy Rain Heavy Rain  
Wind Chill: 75°   Ceiling: 800
Heat Index: 75°   Visibility: 2.5mi
Dew Point: 73°   Wind: 15mph
Humidity: 94%   Direction: 20°NNE
Pressure: 29.82"   Gusts: NA
Location:  25.4848°N, 80.5094°W
Report Text: KHST 241803Z 02013KT 2 1/2SM +RA BR OVC008 24/23 A2982 RMK AO2A VIS 2V2 1/2
Loading
Personal Weather Stations






























Interactive Weather Map
Tropical Storm Tracking
New forecast layout! Learn more

10-Day Weather Forecast

Advertisements
Track Severe Weather on mobile